createdAt,value
2018-07-07T00:01:12.384Z,13.70
2018-07-07T00:04:23.126Z,13.70
2018-07-07T00:07:34.050Z,13.70
2018-07-07T00:10:45.572Z,13.70
2018-07-07T00:13:56.496Z,13.60
2018-07-07T00:17:07.406Z,13.60
2018-07-07T00:20:19.046Z,13.50
2018-07-07T00:23:29.806Z,13.60
2018-07-07T00:26:40.769Z,13.40
2018-07-07T00:29:51.365Z,13.30
2018-07-07T00:34:31.554Z,13.20
2018-07-07T00:37:42.768Z,13.00
2018-07-07T00:40:53.614Z,12.80
2018-07-07T00:44:04.146Z,12.70
2018-07-07T00:47:14.906Z,12.70
2018-07-07T00:50:26.324Z,12.60
2018-07-07T00:53:36.495Z,12.50
2018-07-07T00:56:47.248Z,12.50
2018-07-07T00:59:57.940Z,12.50
2018-07-07T01:03:08.743Z,12.30
2018-07-07T01:06:27.847Z,12.30
2018-07-07T01:09:38.601Z,12.30
2018-07-07T01:12:49.455Z,12.40
2018-07-07T01:16:00.044Z,12.20
2018-07-07T01:19:10.683Z,12.10
2018-07-07T01:22:21.809Z,12.10
2018-07-07T01:25:32.438Z,12.00
2018-07-07T01:28:42.862Z,12.00
2018-07-07T01:31:54.107Z,11.80
2018-07-07T01:35:04.322Z,11.80
2018-07-07T01:38:15.075Z,11.70
2018-07-07T01:41:26.106Z,11.50
2018-07-07T01:44:36.713Z,11.50
2018-07-07T01:47:47.431Z,11.60
2018-07-07T01:50:58.130Z,11.50
2018-07-07T01:54:09.047Z,11.50
2018-07-07T01:57:19.825Z,11.40
2018-07-07T02:00:30.672Z,11.50
2018-07-07T02:03:41.385Z,11.40
2018-07-07T02:06:52.395Z,11.30
2018-07-07T02:10:03.146Z,11.00
2018-07-07T02:13:13.861Z,11.00
2018-07-07T02:16:25.052Z,10.90
2018-07-07T02:19:35.811Z,10.90
2018-07-07T02:22:47.667Z,10.80
2018-07-07T02:25:58.501Z,10.90
2018-07-07T02:29:09.370Z,10.80
2018-07-07T02:32:20.561Z,10.70
2018-07-07T02:35:31.085Z,10.60
2018-07-07T02:38:41.944Z,10.50
2018-07-07T02:41:52.731Z,10.40
2018-07-07T02:45:03.504Z,10.40
2018-07-07T02:48:14.510Z,10.40
2018-07-07T02:51:25.325Z,10.30
2018-07-07T02:54:35.432Z,10.30
2018-07-07T02:57:46.178Z,10.30
2018-07-07T03:00:57.171Z,10.20
2018-07-07T03:04:07.846Z,10.20
2018-07-07T03:07:20.527Z,9.90
2018-07-07T03:10:31.206Z,9.90
2018-07-07T03:13:41.089Z,9.80
2018-07-07T03:16:52.542Z,9.80
2018-07-07T03:20:02.559Z,9.80
2018-07-07T03:23:12.835Z,9.80
2018-07-07T03:26:23.836Z,9.60
2018-07-07T03:29:34.352Z,9.70
2018-07-07T03:32:45.168Z,9.70
2018-07-07T03:35:55.932Z,9.70
2018-07-07T03:39:07.458Z,9.70
2018-07-07T03:42:17.642Z,9.70
2018-07-07T03:45:28.355Z,9.70
2018-07-07T03:48:39.297Z,9.70
2018-07-07T03:51:49.912Z,9.60
2018-07-07T03:55:00.071Z,9.50
2018-07-07T03:58:10.608Z,9.40
2018-07-07T04:04:31.279Z,9.50
2018-07-07T04:07:42.066Z,9.50
2018-07-07T04:10:52.829Z,9.70
2018-07-07T04:14:03.812Z,9.70
2018-07-07T04:17:14.458Z,9.80
2018-07-07T04:20:25.331Z,9.80
2018-07-07T04:23:36.454Z,9.90
2018-07-07T04:26:47.035Z,9.90
2018-07-07T04:29:57.809Z,9.80
2018-07-07T04:33:08.739Z,9.90
2018-07-07T04:36:19.530Z,9.90
2018-07-07T04:39:30.468Z,10.00
2018-07-07T04:42:41.608Z,10.00
2018-07-07T04:45:52.663Z,10.10
2018-07-07T04:49:03.172Z,10.30
2018-07-07T04:52:13.225Z,10.50
2018-07-07T04:55:23.862Z,10.70
2018-07-07T04:58:34.778Z,10.90
2018-07-07T05:01:45.593Z,11.10
2018-07-07T05:04:56.664Z,11.30
2018-07-07T05:08:07.510Z,11.50
2018-07-07T05:11:17.977Z,11.70
2018-07-07T05:14:28.688Z,11.80
2018-07-07T05:17:40.388Z,11.90
2018-07-07T05:20:52.175Z,12.00
2018-07-07T05:24:02.499Z,12.10
2018-07-07T05:27:12.852Z,12.30
2018-07-07T05:30:23.660Z,12.50
2018-07-07T05:33:34.215Z,12.60
2018-07-07T05:36:44.678Z,12.60
2018-07-07T05:39:55.565Z,12.60
2018-07-07T05:43:06.235Z,12.70
2018-07-07T05:46:16.791Z,12.60
2018-07-07T05:49:27.448Z,12.70
2018-07-07T05:52:38.248Z,12.90
2018-07-07T05:55:49.178Z,13.00
2018-07-07T05:58:59.449Z,13.10
2018-07-07T06:02:10.317Z,13.20
2018-07-07T06:05:21.028Z,13.20
2018-07-07T06:08:31.906Z,13.30
2018-07-07T06:11:42.379Z,13.40
2018-07-07T06:14:53.408Z,13.50
2018-07-07T06:18:04.003Z,13.50
2018-07-07T06:21:14.608Z,13.60
2018-07-07T06:24:26.699Z,13.70
2018-07-07T06:27:37.283Z,13.70
2018-07-07T06:30:48.048Z,13.60
2018-07-07T06:33:59.024Z,13.70
2018-07-07T06:37:09.691Z,13.90
2018-07-07T06:40:19.917Z,14.00
2018-07-07T06:43:30.729Z,14.10
2018-07-07T06:46:41.413Z,14.30
2018-07-07T06:49:52.166Z,14.20
2018-07-07T06:53:03.077Z,14.30
2018-07-07T06:56:14.084Z,14.40
2018-07-07T06:59:24.668Z,14.50
2018-07-07T07:02:35.425Z,14.50
2018-07-07T07:05:46.150Z,14.60
2018-07-07T07:08:57.860Z,14.60
2018-07-07T07:12:08.706Z,14.70
2018-07-07T07:15:19.376Z,14.90
2018-07-07T07:18:30.278Z,15.20
2018-07-07T07:21:41.557Z,15.20
2018-07-07T07:24:52.347Z,15.40
2018-07-07T07:28:02.717Z,15.50
2018-07-07T07:31:13.458Z,15.70
2018-07-07T07:34:24.360Z,15.80
2018-07-07T07:37:35.098Z,15.90
2018-07-07T07:40:46.054Z,15.90
2018-07-07T07:43:57.145Z,16.10
2018-07-07T07:47:07.656Z,16.00
2018-07-07T07:50:18.461Z,16.10
2018-07-07T07:53:29.177Z,16.20
2018-07-07T07:56:40.154Z,16.40
2018-07-07T07:59:50.842Z,16.40
2018-07-07T08:03:01.342Z,16.50
2018-07-07T08:06:12.237Z,16.80
2018-07-07T08:09:23.103Z,16.80
2018-07-07T08:12:33.641Z,16.90
2018-07-07T08:15:44.952Z,17.00
2018-07-07T08:18:58.140Z,17.00
2018-07-07T08:22:09.958Z,17.10
2018-07-07T08:25:22.142Z,17.20
2018-07-07T08:28:33.639Z,17.30
2018-07-07T08:31:46.280Z,17.40
2018-07-07T08:34:57.774Z,17.60
2018-07-07T08:38:16.621Z,17.70
2018-07-07T08:41:28.405Z,17.80
2018-07-07T08:44:40.008Z,17.90
2018-07-07T08:47:50.913Z,18.00
2018-07-07T08:51:01.458Z,17.90
2018-07-07T08:54:11.674Z,18.20
2018-07-07T08:57:22.255Z,18.40
2018-07-07T09:00:32.910Z,18.20
2018-07-07T09:03:44.058Z,18.20
2018-07-07T09:06:54.452Z,18.50
2018-07-07T09:10:04.615Z,18.60
2018-07-07T09:13:15.069Z,18.80
2018-07-07T09:16:26.379Z,19.00
2018-07-07T09:19:36.744Z,18.90
2018-07-07T09:22:47.839Z,18.80
2018-07-07T09:25:58.735Z,19.00
2018-07-07T09:29:09.140Z,19.00
2018-07-07T09:32:19.718Z,19.40
2018-07-07T09:35:30.611Z,19.60
2018-07-07T09:38:41.468Z,19.60
2018-07-07T09:41:51.813Z,19.60
2018-07-07T09:45:02.510Z,19.80
2018-07-07T09:48:13.302Z,19.80
2018-07-07T09:51:24.407Z,20.10
2018-07-07T09:54:34.581Z,20.00
2018-07-07T09:57:45.378Z,20.10
2018-07-07T10:00:55.896Z,20.30
2018-07-07T10:04:06.677Z,20.40
2018-07-07T10:07:17.169Z,20.60
2018-07-07T10:10:27.998Z,20.50
2018-07-07T10:13:38.518Z,20.40
2018-07-07T10:16:49.108Z,20.80
2018-07-07T10:20:00.140Z,21.00
2018-07-07T10:23:10.538Z,21.00
2018-07-07T10:26:21.381Z,21.30
2018-07-07T10:29:32.141Z,21.30
2018-07-07T10:32:42.935Z,21.30
2018-07-07T10:35:53.383Z,21.30
2018-07-07T10:39:05.042Z,21.60
2018-07-07T10:42:16.068Z,21.60
2018-07-07T10:45:26.867Z,21.70
2018-07-07T10:48:37.538Z,21.50
2018-07-07T10:51:48.135Z,21.80
2018-07-07T10:54:59.024Z,22.00
2018-07-07T10:58:09.381Z,21.90
2018-07-07T11:01:20.069Z,22.00
2018-07-07T11:07:40.502Z,22.20
2018-07-07T11:10:51.244Z,22.20
2018-07-07T11:14:01.876Z,22.20
2018-07-07T11:17:13.492Z,22.20
2018-07-07T11:20:24.028Z,22.40
2018-07-07T11:23:34.795Z,22.60
2018-07-07T11:26:45.871Z,22.80
2018-07-07T11:29:56.057Z,22.60
2018-07-07T11:33:06.823Z,22.60
2018-07-07T11:36:17.403Z,23.00
2018-07-07T11:39:28.520Z,23.00
2018-07-07T11:42:38.971Z,22.70
2018-07-07T11:45:49.639Z,23.00
2018-07-07T11:49:00.556Z,22.90
2018-07-07T11:52:11.370Z,23.00
2018-07-07T11:55:22.998Z,23.20
2018-07-07T11:58:33.250Z,23.30
2018-07-07T12:01:43.672Z,23.30
2018-07-07T12:04:54.258Z,23.70
2018-07-07T12:08:13.873Z,23.60
2018-07-07T12:11:15.669Z,23.80
2018-07-07T12:14:26.182Z,23.80
2018-07-07T12:17:36.829Z,23.90
2018-07-07T12:20:47.554Z,23.60
2018-07-07T12:23:58.220Z,23.60
2018-07-07T12:27:08.560Z,23.70
2018-07-07T12:30:19.169Z,23.70
2018-07-07T12:33:29.418Z,23.90
2018-07-07T12:36:39.816Z,23.80
2018-07-07T12:39:49.759Z,24.20
2018-07-07T12:42:59.592Z,24.20
2018-07-07T12:46:10.130Z,23.60
2018-07-07T12:49:20.830Z,24.20
2018-07-07T12:52:31.378Z,24.00
2018-07-07T12:55:41.509Z,24.10
2018-07-07T12:58:52.533Z,24.10
2018-07-07T13:02:02.706Z,23.90
2018-07-07T13:05:12.876Z,24.20
2018-07-07T13:08:23.339Z,24.40
2018-07-07T13:11:33.439Z,24.10
2018-07-07T13:14:43.132Z,24.20
2018-07-07T13:17:53.206Z,24.70
2018-07-07T13:21:03.510Z,24.60
2018-07-07T13:24:14.020Z,24.50
2018-07-07T13:27:24.169Z,24.70
2018-07-07T13:30:34.081Z,24.40
2018-07-07T13:33:44.779Z,24.40
2018-07-07T13:36:55.409Z,24.70
2018-07-07T13:40:06.158Z,24.70
2018-07-07T13:43:16.456Z,25.00
2018-07-07T13:46:26.157Z,24.70
2018-07-07T13:49:35.946Z,24.50
2018-07-07T13:52:46.363Z,24.80
2018-07-07T13:55:57.204Z,25.00
2018-07-07T13:59:07.843Z,24.70
2018-07-07T14:02:18.515Z,24.70
2018-07-07T14:05:29.191Z,24.60
2018-07-07T14:08:39.599Z,24.90
2018-07-07T14:11:49.334Z,25.00
2018-07-07T14:15:01.615Z,24.80
2018-07-07T14:18:11.593Z,24.80
2018-07-07T14:21:22.328Z,24.80
2018-07-07T14:24:33.245Z,24.90
2018-07-07T14:27:43.635Z,24.80
2018-07-07T14:30:53.970Z,24.90
2018-07-07T14:34:04.719Z,25.00
2018-07-07T14:37:15.098Z,24.80
2018-07-07T14:40:24.862Z,24.70
2018-07-07T14:43:46.530Z,24.70
2018-07-07T14:46:57.473Z,24.50
2018-07-07T14:50:08.321Z,24.70
2018-07-07T14:53:18.853Z,24.70
2018-07-07T14:56:29.419Z,24.40
2018-07-07T14:59:40.064Z,24.80
2018-07-07T15:02:51.309Z,24.90
2018-07-07T15:06:01.594Z,24.80
2018-07-07T15:12:21.901Z,24.80
2018-07-07T15:15:32.572Z,24.70
2018-07-07T15:18:43.422Z,24.90
2018-07-07T15:21:53.762Z,24.70
2018-07-07T15:25:03.692Z,24.80
2018-07-07T15:28:14.482Z,24.80
2018-07-07T15:31:25.245Z,24.80
2018-07-07T15:34:35.017Z,24.90
2018-07-07T15:37:46.078Z,24.90
2018-07-07T15:40:56.206Z,24.80
2018-07-07T15:44:07.324Z,24.80
2018-07-07T15:47:17.938Z,24.80
2018-07-07T15:50:28.314Z,24.80
2018-07-07T15:53:38.788Z,24.80
2018-07-07T15:56:49.175Z,25.00
2018-07-07T15:59:59.933Z,24.70
2018-07-07T16:03:09.643Z,24.50
2018-07-07T16:06:20.179Z,24.50
2018-07-07T16:09:30.782Z,24.50
2018-07-07T16:12:41.508Z,24.40
2018-07-07T16:15:52.055Z,24.40
2018-07-07T16:19:02.891Z,24.50
2018-07-07T16:22:13.204Z,24.40
2018-07-07T16:25:23.827Z,24.50
2018-07-07T16:28:33.629Z,24.50
2018-07-07T16:31:44.403Z,24.20
2018-07-07T16:34:55.343Z,24.20
2018-07-07T16:38:05.315Z,24.30
2018-07-07T16:41:16.392Z,24.40
2018-07-07T16:44:26.859Z,24.20
2018-07-07T16:50:48.309Z,24.40
2018-07-07T16:53:59.287Z,24.40
2018-07-07T16:57:11.793Z,24.30
2018-07-07T17:00:22.434Z,24.30
2018-07-07T17:03:32.932Z,24.20
2018-07-07T17:06:43.576Z,24.10
2018-07-07T17:09:53.902Z,24.10
2018-07-07T17:13:05.358Z,24.00
2018-07-07T17:16:14.983Z,24.00
2018-07-07T17:19:25.923Z,24.10
2018-07-07T17:22:36.666Z,24.00
2018-07-07T17:25:47.619Z,23.90
2018-07-07T17:28:58.296Z,23.80
2018-07-07T17:32:08.523Z,23.70
2018-07-07T17:35:19.230Z,23.70
2018-07-07T17:38:30.496Z,23.70
2018-07-07T17:41:42.598Z,23.70
2018-07-07T17:44:53.241Z,23.70
2018-07-07T17:48:03.898Z,23.70
2018-07-07T17:51:14.077Z,23.70
2018-07-07T17:54:24.013Z,23.70
2018-07-07T17:57:34.907Z,23.60
2018-07-07T18:00:45.450Z,23.60
2018-07-07T18:03:56.043Z,23.50
2018-07-07T18:07:06.234Z,23.40
2018-07-07T18:10:15.910Z,23.40
2018-07-07T18:13:26.649Z,23.30
2018-07-07T18:16:38.030Z,23.30
2018-07-07T18:19:48.261Z,23.20
2018-07-07T18:22:59.490Z,23.10
2018-07-07T18:26:10.560Z,23.10
2018-07-07T18:29:21.967Z,22.90
2018-07-07T18:32:32.775Z,22.80
2018-07-07T18:35:43.119Z,22.70
2018-07-07T18:38:53.753Z,22.50
2018-07-07T18:42:04.457Z,22.40
2018-07-07T18:45:15.391Z,22.20
2018-07-07T18:48:25.769Z,22.10
2018-07-07T18:51:36.740Z,22.10
2018-07-07T18:54:47.572Z,22.00
2018-07-07T18:57:58.675Z,21.80
2018-07-07T19:01:10.203Z,21.70
2018-07-07T19:04:21.095Z,21.60
2018-07-07T19:07:32.431Z,21.50
2018-07-07T19:10:43.404Z,21.30
2018-07-07T19:13:54.008Z,21.20
2018-07-07T19:17:04.809Z,21.10
2018-07-07T19:20:20.557Z,21.00
2018-07-07T19:23:37.338Z,21.00
2018-07-07T19:26:51.296Z,20.80
2018-07-07T19:30:02.527Z,20.80
2018-07-07T19:33:18.374Z,20.70
2018-07-07T19:36:33.957Z,20.70
2018-07-07T19:39:46.127Z,20.60
2018-07-07T19:42:56.687Z,20.40
2018-07-07T19:46:07.451Z,20.30
2018-07-07T19:49:17.914Z,20.20
2018-07-07T19:52:28.739Z,20.10
2018-07-07T19:58:53.933Z,20.00
2018-07-07T20:02:04.392Z,19.90
2018-07-07T20:05:15.116Z,19.80
2018-07-07T20:08:26.799Z,19.80
2018-07-07T20:11:38.162Z,19.80
2018-07-07T20:14:48.936Z,19.70
2018-07-07T20:18:04.700Z,19.60
2018-07-07T20:21:32.497Z,19.50
2018-07-07T20:24:43.519Z,19.40
2018-07-07T20:27:59.136Z,19.30
2018-07-07T20:31:09.916Z,19.10
2018-07-07T20:34:25.813Z,18.90
2018-07-07T20:37:37.555Z,18.70
2018-07-07T20:40:47.703Z,18.40
2018-07-07T20:43:58.657Z,18.30
2018-07-07T20:47:10.259Z,18.20
2018-07-07T20:50:20.759Z,18.10
2018-07-07T20:53:31.755Z,18.00
2018-07-07T20:56:42.387Z,17.90
2018-07-07T20:59:53.101Z,17.80
2018-07-07T21:03:04.122Z,17.90
2018-07-07T21:06:14.510Z,17.70
2018-07-07T21:09:25.648Z,17.70
2018-07-07T21:12:36.005Z,17.70
2018-07-07T21:15:46.581Z,17.50
2018-07-07T21:18:57.238Z,17.40
2018-07-07T21:22:14.641Z,17.30
2018-07-07T21:25:25.276Z,17.30
2018-07-07T21:28:35.607Z,17.30
2018-07-07T21:31:46.949Z,17.30
2018-07-07T21:34:57.747Z,17.20
2018-07-07T21:38:08.854Z,17.10
2018-07-07T21:41:19.577Z,17.00
2018-07-07T21:44:30.736Z,16.80
2018-07-07T21:47:41.636Z,16.80
2018-07-07T21:50:52.760Z,16.70
2018-07-07T21:54:03.386Z,16.60
2018-07-07T21:57:19.003Z,16.50
2018-07-07T22:00:34.988Z,16.50
2018-07-07T22:03:50.308Z,16.40
2018-07-07T22:07:07.348Z,16.30
2018-07-07T22:10:17.564Z,16.30
2018-07-07T22:13:27.720Z,16.00
2018-07-07T22:16:38.528Z,15.80
2018-07-07T22:19:49.310Z,15.70
2018-07-07T22:23:00.388Z,15.60
2018-07-07T22:26:11.268Z,15.60
2018-07-07T22:29:22.397Z,15.50
2018-07-07T22:32:38.794Z,15.60
2018-07-07T22:35:54.496Z,15.60
2018-07-07T22:39:05.080Z,15.60
2018-07-07T22:42:17.461Z,15.50
2018-07-07T22:45:28.119Z,15.40
2018-07-07T22:48:38.904Z,15.10
2018-07-07T22:51:49.755Z,15.00
2018-07-07T22:55:00.571Z,15.00
2018-07-07T22:58:11.522Z,15.00
2018-07-07T23:01:22.566Z,15.00
2018-07-07T23:04:33.051Z,14.90
2018-07-07T23:07:44.009Z,15.00
2018-07-07T23:10:54.633Z,14.90
2018-07-07T23:14:05.692Z,14.80
2018-07-07T23:17:15.756Z,14.60
2018-07-07T23:20:26.686Z,14.60
2018-07-07T23:23:37.218Z,14.50
2018-07-07T23:26:47.240Z,14.50
2018-07-07T23:29:58.184Z,14.50
2018-07-07T23:36:45.176Z,14.30
2018-07-07T23:39:55.630Z,14.40
2018-07-07T23:43:06.811Z,14.20
2018-07-07T23:46:17.342Z,14.10
2018-07-07T23:49:28.071Z,14.10
2018-07-07T23:55:55.802Z,14.10
2018-07-07T23:59:06.568Z,14.00
